sensor_id;sensor_type;location;lat;lon;timestamp;temperature;humidity
30999;DHT22;20549;50.042;8.968;2023-05-13T00:01:47;13.50;99.20
30999;DHT22;20549;50.042;8.968;2023-05-13T00:04:14;13.50;99.20
30999;DHT22;20549;50.042;8.968;2023-05-13T00:06:40;13.50;99.10
30999;DHT22;20549;50.042;8.968;2023-05-13T00:09:07;13.60;99.10
30999;DHT22;20549;50.042;8.968;2023-05-13T00:11:33;13.60;99.10
30999;DHT22;20549;50.042;8.968;2023-05-13T00:14:00;13.60;99.00
30999;DHT22;20549;50.042;8.968;2023-05-13T00:16:27;13.60;98.90
30999;DHT22;20549;50.042;8.968;2023-05-13T00:18:53;13.60;98.90
30999;DHT22;20549;50.042;8.968;2023-05-13T00:21:20;13.60;98.90
30999;DHT22;20549;50.042;8.968;2023-05-13T00:23:46;13.70;99.00
30999;DHT22;20549;50.042;8.968;2023-05-13T00:26:13;13.70;99.20
30999;DHT22;20549;50.042;8.968;2023-05-13T00:28:39;13.70;99.10
30999;DHT22;20549;50.042;8.968;2023-05-13T00:31:06;13.70;99.20
30999;DHT22;20549;50.042;8.968;2023-05-13T00:33:33;13.70;98.90
30999;DHT22;20549;50.042;8.968;2023-05-13T00:35:59;13.70;99.40
30999;DHT22;20549;50.042;8.968;2023-05-13T00:38:26;13.70;99.40
30999;DHT22;20549;50.042;8.968;2023-05-13T00:40:52;13.70;99.40
30999;DHT22;20549;50.042;8.968;2023-05-13T00:43:19;13.80;99.90
30999;DHT22;20549;50.042;8.968;2023-05-13T00:45:46;13.80;99.70
30999;DHT22;20549;50.042;8.968;2023-05-13T00:48:12;13.80;99.70
30999;DHT22;20549;50.042;8.968;2023-05-13T00:50:39;13.90;99.80
30999;DHT22;20549;50.042;8.968;2023-05-13T00:53:05;13.90;99.90
30999;DHT22;20549;50.042;8.968;2023-05-13T00:55:32;13.90;99.80
30999;DHT22;20549;50.042;8.968;2023-05-13T00:57:59;14.00;99.70
30999;DHT22;20549;50.042;8.968;2023-05-13T01:00:26;14.00;99.70
30999;DHT22;20549;50.042;8.968;2023-05-13T01:03:14;14.00;99.70
30999;DHT22;20549;50.042;8.968;2023-05-13T01:05:46;14.00;99.70
30999;DHT22;20549;50.042;8.968;2023-05-13T01:08:40;14.00;99.60
30999;DHT22;20549;50.042;8.968;2023-05-13T01:11:05;14.00;99.60
30999;DHT22;20549;50.042;8.968;2023-05-13T01:13:33;14.00;99.40
30999;DHT22;20549;50.042;8.968;2023-05-13T01:16:05;14.00;99.30
30999;DHT22;20549;50.042;8.968;2023-05-13T01:18:42;14.10;99.50
30999;DHT22;20549;50.042;8.968;2023-05-13T01:21:07;14.10;99.50
30999;DHT22;20549;50.042;8.968;2023-05-13T01:23:33;14.10;99.50
30999;DHT22;20549;50.042;8.968;2023-05-13T01:26:00;14.10;99.40
30999;DHT22;20549;50.042;8.968;2023-05-13T01:28:26;14.10;99.60
30999;DHT22;20549;50.042;8.968;2023-05-13T01:30:53;14.20;99.50
30999;DHT22;20549;50.042;8.968;2023-05-13T01:33:20;14.20;99.50
30999;DHT22;20549;50.042;8.968;2023-05-13T01:35:46;14.20;99.40
30999;DHT22;20549;50.042;8.968;2023-05-13T01:38:13;14.20;99.20
30999;DHT22;20549;50.042;8.968;2023-05-13T01:40:40;14.20;99.10
30999;DHT22;20549;50.042;8.968;2023-05-13T01:43:06;14.20;99.00
30999;DHT22;20549;50.042;8.968;2023-05-13T01:45:32;14.20;99.00
30999;DHT22;20549;50.042;8.968;2023-05-13T01:47:59;14.20;98.90
30999;DHT22;20549;50.042;8.968;2023-05-13T01:50:26;14.20;99.00
30999;DHT22;20549;50.042;8.968;2023-05-13T01:52:52;14.20;98.90
30999;DHT22;20549;50.042;8.968;2023-05-13T01:55:19;14.20;98.80
30999;DHT22;20549;50.042;8.968;2023-05-13T01:57:45;14.20;98.60
30999;DHT22;20549;50.042;8.968;2023-05-13T02:00:12;14.20;98.80
30999;DHT22;20549;50.042;8.968;2023-05-13T02:02:39;14.10;98.20
30999;DHT22;20549;50.042;8.968;2023-05-13T02:05:05;14.10;98.10
30999;DHT22;20549;50.042;8.968;2023-05-13T02:07:32;14.00;98.00
30999;DHT22;20549;50.042;8.968;2023-05-13T02:09:58;14.00;97.90
30999;DHT22;20549;50.042;8.968;2023-05-13T02:12:25;13.90;97.90
30999;DHT22;20549;50.042;8.968;2023-05-13T02:14:54;13.80;97.90
30999;DHT22;20549;50.042;8.968;2023-05-13T02:17:21;13.70;98.00
30999;DHT22;20549;50.042;8.968;2023-05-13T02:19:48;13.70;98.20
30999;DHT22;20549;50.042;8.968;2023-05-13T02:22:14;13.60;98.40
30999;DHT22;20549;50.042;8.968;2023-05-13T02:24:41;13.50;98.70
30999;DHT22;20549;50.042;8.968;2023-05-13T02:27:07;13.50;99.00
30999;DHT22;20549;50.042;8.968;2023-05-13T02:29:34;13.50;99.40
30999;DHT22;20549;50.042;8.968;2023-05-13T02:32:01;13.40;99.90
30999;DHT22;20549;50.042;8.968;2023-05-13T02:34:27;13.40;99.80
30999;DHT22;20549;50.042;8.968;2023-05-13T02:36:54;13.40;99.90
30999;DHT22;20549;50.042;8.968;2023-05-13T02:39:20;13.40;99.90
30999;DHT22;20549;50.042;8.968;2023-05-13T02:41:47;13.30;99.90
30999;DHT22;20549;50.042;8.968;2023-05-13T02:44:13;13.30;99.90
30999;DHT22;20549;50.042;8.968;2023-05-13T02:46:40;13.30;99.90
30999;DHT22;20549;50.042;8.968;2023-05-13T02:49:07;13.30;99.80
30999;DHT22;20549;50.042;8.968;2023-05-13T02:51:33;13.20;99.90
30999;DHT22;20549;50.042;8.968;2023-05-13T02:54:00;13.20;99.90
30999;DHT22;20549;50.042;8.968;2023-05-13T02:56:26;13.10;99.90
30999;DHT22;20549;50.042;8.968;2023-05-13T02:58:53;13.10;99.90
30999;DHT22;20549;50.042;8.968;2023-05-13T03:01:20;13.10;99.90
30999;DHT22;20549;50.042;8.968;2023-05-13T03:03:46;13.00;99.90
30999;DHT22;20549;50.042;8.968;2023-05-13T03:06:13;13.00;99.90
30999;DHT22;20549;50.042;8.968;2023-05-13T03:08:39;13.00;99.90
30999;DHT22;20549;50.042;8.968;2023-05-13T03:11:06;13.00;99.90
30999;DHT22;20549;50.042;8.968;2023-05-13T03:13:33;13.10;99.90
30999;DHT22;20549;50.042;8.968;2023-05-13T03:15:59;13.10;99.90
30999;DHT22;20549;50.042;8.968;2023-05-13T03:18:26;13.10;99.90
30999;DHT22;20549;50.042;8.968;2023-05-13T03:20:52;13.10;99.90
30999;DHT22;20549;50.042;8.968;2023-05-13T03:23:19;13.20;99.90
30999;DHT22;20549;50.042;8.968;2023-05-13T03:25:45;13.20;99.90
30999;DHT22;20549;50.042;8.968;2023-05-13T03:28:12;13.20;99.90
30999;DHT22;20549;50.042;8.968;2023-05-13T03:30:39;13.30;99.90
30999;DHT22;20549;50.042;8.968;2023-05-13T03:33:05;13.30;99.90
30999;DHT22;20549;50.042;8.968;2023-05-13T03:35:32;13.30;99.90
30999;DHT22;20549;50.042;8.968;2023-05-13T03:37:58;13.30;99.90
30999;DHT22;20549;50.042;8.968;2023-05-13T03:40:25;13.30;99.90
30999;DHT22;20549;50.042;8.968;2023-05-13T03:42:52;13.30;99.90
30999;DHT22;20549;50.042;8.968;2023-05-13T03:45:18;13.30;99.90
30999;DHT22;20549;50.042;8.968;2023-05-13T03:47:45;13.40;99.90
30999;DHT22;20549;50.042;8.968;2023-05-13T03:50:11;13.40;99.90
30999;DHT22;20549;50.042;8.968;2023-05-13T03:52:38;13.40;99.90
30999;DHT22;20549;50.042;8.968;2023-05-13T03:55:05;13.40;99.90
30999;DHT22;20549;50.042;8.968;2023-05-13T03:57:31;13.40;99.90
30999;DHT22;20549;50.042;8.968;2023-05-13T03:59:58;13.40;99.90
30999;DHT22;20549;50.042;8.968;2023-05-13T04:02:24;13.50;99.90
30999;DHT22;20549;50.042;8.968;2023-05-13T04:04:51;13.40;99.90
30999;DHT22;20549;50.042;8.968;2023-05-13T04:07:17;13.50;99.90
30999;DHT22;20549;50.042;8.968;2023-05-13T04:09:44;13.50;99.90
30999;DHT22;20549;50.042;8.968;2023-05-13T04:12:11;13.60;99.90
30999;DHT22;20549;50.042;8.968;2023-05-13T04:14:37;13.60;99.90
30999;DHT22;20549;50.042;8.968;2023-05-13T04:17:04;13.60;99.90
30999;DHT22;20549;50.042;8.968;2023-05-13T04:19:30;13.70;99.90
30999;DHT22;20549;50.042;8.968;2023-05-13T04:21:57;13.80;99.90
30999;DHT22;20549;50.042;8.968;2023-05-13T04:24:24;13.90;99.90
30999;DHT22;20549;50.042;8.968;2023-05-13T04:26:50;13.90;99.90
30999;DHT22;20549;50.042;8.968;2023-05-13T04:29:17;14.00;99.90
30999;DHT22;20549;50.042;8.968;2023-05-13T04:31:43;14.10;99.90
30999;DHT22;20549;50.042;8.968;2023-05-13T04:34:10;14.10;99.90
30999;DHT22;20549;50.042;8.968;2023-05-13T04:36:37;14.20;99.90
30999;DHT22;20549;50.042;8.968;2023-05-13T04:39:03;14.30;99.90
30999;DHT22;20549;50.042;8.968;2023-05-13T04:41:30;14.40;99.90
30999;DHT22;20549;50.042;8.968;2023-05-13T04:43:56;14.50;99.90
30999;DHT22;20549;50.042;8.968;2023-05-13T04:46:23;14.60;99.90
30999;DHT22;20549;50.042;8.968;2023-05-13T04:48:49;14.70;99.90
30999;DHT22;20549;50.042;8.968;2023-05-13T04:51:16;14.90;99.90
30999;DHT22;20549;50.042;8.968;2023-05-13T04:53:43;15.00;99.90
30999;DHT22;20549;50.042;8.968;2023-05-13T04:56:09;15.10;99.90
30999;DHT22;20549;50.042;8.968;2023-05-13T04:58:36;15.30;99.90
30999;DHT22;20549;50.042;8.968;2023-05-13T05:01:02;15.40;99.90
30999;DHT22;20549;50.042;8.968;2023-05-13T05:03:29;15.70;99.90
30999;DHT22;20549;50.042;8.968;2023-05-13T05:05:56;15.90;99.90
30999;DHT22;20549;50.042;8.968;2023-05-13T05:08:22;16.10;99.90
30999;DHT22;20549;50.042;8.968;2023-05-13T05:10:49;16.30;99.90
30999;DHT22;20549;50.042;8.968;2023-05-13T05:13:15;16.50;99.70
30999;DHT22;20549;50.042;8.968;2023-05-13T05:15:42;16.60;98.70
30999;DHT22;20549;50.042;8.968;2023-05-13T05:18:09;16.70;98.00
30999;DHT22;20549;50.042;8.968;2023-05-13T05:20:36;16.70;97.50
30999;DHT22;20549;50.042;8.968;2023-05-13T05:23:02;16.80;97.20
30999;DHT22;20549;50.042;8.968;2023-05-13T05:25:28;16.80;97.00
30999;DHT22;20549;50.042;8.968;2023-05-13T05:27:55;16.90;96.90
30999;DHT22;20549;50.042;8.968;2023-05-13T05:30:21;16.90;96.70
30999;DHT22;20549;50.042;8.968;2023-05-13T05:32:48;16.90;96.80
30999;DHT22;20549;50.042;8.968;2023-05-13T05:35:15;17.00;96.80
30999;DHT22;20549;50.042;8.968;2023-05-13T05:37:41;17.00;96.80
30999;DHT22;20549;50.042;8.968;2023-05-13T05:40:08;17.20;96.80
30999;DHT22;20549;50.042;8.968;2023-05-13T05:42:34;17.30;97.40
30999;DHT22;20549;50.042;8.968;2023-05-13T05:45:01;17.50;98.30
30999;DHT22;20549;50.042;8.968;2023-05-13T05:47:28;17.80;99.10
30999;DHT22;20549;50.042;8.968;2023-05-13T05:49:54;18.10;99.10
30999;DHT22;20549;50.042;8.968;2023-05-13T05:52:21;18.50;99.30
30999;DHT22;20549;50.042;8.968;2023-05-13T05:54:47;19.00;99.20
30999;DHT22;20549;50.042;8.968;2023-05-13T05:57:14;19.50;99.70
30999;DHT22;20549;50.042;8.968;2023-05-13T05:59:41;20.10;98.80
30999;DHT22;20549;50.042;8.968;2023-05-13T06:02:07;20.70;96.40
30999;DHT22;20549;50.042;8.968;2023-05-13T06:04:34;21.20;93.10
30999;DHT22;20549;50.042;8.968;2023-05-13T06:07:00;21.50;90.50
30999;DHT22;20549;50.042;8.968;2023-05-13T06:09:27;21.90;88.40
30999;DHT22;20549;50.042;8.968;2023-05-13T06:11:54;22.10;85.80
30999;DHT22;20549;50.042;8.968;2023-05-13T06:14:20;22.20;83.10
30999;DHT22;20549;50.042;8.968;2023-05-13T06:16:47;22.40;80.80
30999;DHT22;20549;50.042;8.968;2023-05-13T06:19:13;22.40;78.90
30999;DHT22;20549;50.042;8.968;2023-05-13T06:21:40;22.40;77.50
30999;DHT22;20549;50.042;8.968;2023-05-13T06:24:06;22.40;76.30
30999;DHT22;20549;50.042;8.968;2023-05-13T06:26:33;22.40;75.30
30999;DHT22;20549;50.042;8.968;2023-05-13T06:29:00;22.30;74.60
30999;DHT22;20549;50.042;8.968;2023-05-13T06:31:26;22.30;74.50
30999;DHT22;20549;50.042;8.968;2023-05-13T06:33:53;22.20;74.50
30999;DHT22;20549;50.042;8.968;2023-05-13T06:36:19;22.20;74.60
30999;DHT22;20549;50.042;8.968;2023-05-13T06:38:46;22.20;74.90
30999;DHT22;20549;50.042;8.968;2023-05-13T06:41:13;22.20;74.90
30999;DHT22;20549;50.042;8.968;2023-05-13T06:43:39;22.30;74.80
30999;DHT22;20549;50.042;8.968;2023-05-13T06:46:06;22.30;74.40
30999;DHT22;20549;50.042;8.968;2023-05-13T06:48:32;22.40;74.40
30999;DHT22;20549;50.042;8.968;2023-05-13T06:51:00;22.40;74.40
30999;DHT22;20549;50.042;8.968;2023-05-13T06:53:27;22.50;74.90
30999;DHT22;20549;50.042;8.968;2023-05-13T06:55:53;22.60;73.90
30999;DHT22;20549;50.042;8.968;2023-05-13T06:58:20;22.70;73.80
30999;DHT22;20549;50.042;8.968;2023-05-13T07:00:46;22.80;73.90
30999;DHT22;20549;50.042;8.968;2023-05-13T07:03:13;23.10;74.20
30999;DHT22;20549;50.042;8.968;2023-05-13T07:05:39;23.30;74.10
30999;DHT22;20549;50.042;8.968;2023-05-13T07:08:06;23.60;74.30
30999;DHT22;20549;50.042;8.968;2023-05-13T07:10:33;24.00;74.00
30999;DHT22;20549;50.042;8.968;2023-05-13T07:13:02;24.40;73.90
30999;DHT22;20549;50.042;8.968;2023-05-13T07:15:29;24.80;73.30
30999;DHT22;20549;50.042;8.968;2023-05-13T07:17:55;25.30;73.00
30999;DHT22;20549;50.042;8.968;2023-05-13T07:20:22;25.90;72.50
30999;DHT22;20549;50.042;8.968;2023-05-13T07:22:49;26.40;71.70
30999;DHT22;20549;50.042;8.968;2023-05-13T07:25:15;27.10;71.80
30999;DHT22;20549;50.042;8.968;2023-05-13T07:27:42;27.80;71.50
30999;DHT22;20549;50.042;8.968;2023-05-13T07:30:09;28.60;70.00
30999;DHT22;20549;50.042;8.968;2023-05-13T07:32:35;29.30;67.10
30999;DHT22;20549;50.042;8.968;2023-05-13T07:35:02;29.90;64.20
30999;DHT22;20549;50.042;8.968;2023-05-13T07:37:28;30.40;61.40
30999;DHT22;20549;50.042;8.968;2023-05-13T07:39:55;30.70;59.50
30999;DHT22;20549;50.042;8.968;2023-05-13T07:42:21;30.90;58.10
30999;DHT22;20549;50.042;8.968;2023-05-13T07:44:48;31.00;57.40
30999;DHT22;20549;50.042;8.968;2023-05-13T07:47:14;31.10;56.60
30999;DHT22;20549;50.042;8.968;2023-05-13T07:49:41;31.20;56.60
30999;DHT22;20549;50.042;8.968;2023-05-13T07:52:08;31.40;56.40
30999;DHT22;20549;50.042;8.968;2023-05-13T07:54:34;31.80;56.90
30999;DHT22;20549;50.042;8.968;2023-05-13T07:57:01;32.30;57.00
30999;DHT22;20549;50.042;8.968;2023-05-13T07:59:27;32.70;56.10
30999;DHT22;20549;50.042;8.968;2023-05-13T08:01:54;33.20;55.30
30999;DHT22;20549;50.042;8.968;2023-05-13T08:04:21;33.70;54.60
30999;DHT22;20549;50.042;8.968;2023-05-13T08:06:47;34.20;54.40
30999;DHT22;20549;50.042;8.968;2023-05-13T08:09:14;34.80;53.60
30999;DHT22;20549;50.042;8.968;2023-05-13T08:11:40;35.30;52.80
30999;DHT22;20549;50.042;8.968;2023-05-13T08:14:07;35.80;52.20
30999;DHT22;20549;50.042;8.968;2023-05-13T08:16:34;36.40;51.90
30999;DHT22;20549;50.042;8.968;2023-05-13T08:19:00;37.00;51.20
30999;DHT22;20549;50.042;8.968;2023-05-13T08:21:27;37.70;50.20
30999;DHT22;20549;50.042;8.968;2023-05-13T08:23:53;38.20;49.20
30999;DHT22;20549;50.042;8.968;2023-05-13T08:26:20;38.70;47.30
30999;DHT22;20549;50.042;8.968;2023-05-13T08:28:46;39.20;46.60
30999;DHT22;20549;50.042;8.968;2023-05-13T08:31:13;39.50;45.90
30999;DHT22;20549;50.042;8.968;2023-05-13T08:33:40;39.90;44.60
30999;DHT22;20549;50.042;8.968;2023-05-13T08:36:06;40.20;43.70
30999;DHT22;20549;50.042;8.968;2023-05-13T08:38:33;40.50;43.40
30999;DHT22;20549;50.042;8.968;2023-05-13T08:41:02;40.70;42.90
30999;DHT22;20549;50.042;8.968;2023-05-13T08:43:26;41.00;41.80
30999;DHT22;20549;50.042;8.968;2023-05-13T08:45:53;41.20;41.00
30999;DHT22;20549;50.042;8.968;2023-05-13T08:48:19;41.40;40.40
30999;DHT22;20549;50.042;8.968;2023-05-13T08:50:46;41.60;40.10
30999;DHT22;20549;50.042;8.968;2023-05-13T08:53:12;41.80;40.00
30999;DHT22;20549;50.042;8.968;2023-05-13T08:55:39;42.10;39.70
30999;DHT22;20549;50.042;8.968;2023-05-13T08:58:06;42.40;38.90
30999;DHT22;20549;50.042;8.968;2023-05-13T09:00:33;42.70;37.90
30999;DHT22;20549;50.042;8.968;2023-05-13T09:02:59;42.80;37.20
30999;DHT22;20549;50.042;8.968;2023-05-13T09:05:25;42.90;36.10
30999;DHT22;20549;50.042;8.968;2023-05-13T09:07:52;42.90;35.70
30999;DHT22;20549;50.042;8.968;2023-05-13T09:10:19;42.90;35.40
30999;DHT22;20549;50.042;8.968;2023-05-13T09:12:52;42.70;34.90
30999;DHT22;20549;50.042;8.968;2023-05-13T09:15:19;42.70;34.80
30999;DHT22;20549;50.042;8.968;2023-05-13T09:17:48;42.50;34.50
30999;DHT22;20549;50.042;8.968;2023-05-13T09:20:12;42.40;34.30
30999;DHT22;20549;50.042;8.968;2023-05-13T09:22:50;42.20;33.90
30999;DHT22;20549;50.042;8.968;2023-05-13T09:25:17;42.00;33.30
30999;DHT22;20549;50.042;8.968;2023-05-13T09:27:45;41.60;33.00
30999;DHT22;20549;50.042;8.968;2023-05-13T09:30:10;41.20;33.00
30999;DHT22;20549;50.042;8.968;2023-05-13T09:32:36;40.70;32.80
30999;DHT22;20549;50.042;8.968;2023-05-13T09:35:09;40.10;32.40
30999;DHT22;20549;50.042;8.968;2023-05-13T09:37:35;39.50;32.10
30999;DHT22;20549;50.042;8.968;2023-05-13T09:40:02;38.80;32.30
30999;DHT22;20549;50.042;8.968;2023-05-13T09:42:28;38.10;33.20
30999;DHT22;20549;50.042;8.968;2023-05-13T09:44:55;37.50;33.30
30999;DHT22;20549;50.042;8.968;2023-05-13T09:47:22;37.10;33.60
30999;DHT22;20549;50.042;8.968;2023-05-13T09:49:53;36.60;33.50
30999;DHT22;20549;50.042;8.968;2023-05-13T09:52:15;36.10;33.30
30999;DHT22;20549;50.042;8.968;2023-05-13T09:54:41;35.50;33.10
30999;DHT22;20549;50.042;8.968;2023-05-13T09:57:08;34.90;33.30
30999;DHT22;20549;50.042;8.968;2023-05-13T09:59:34;34.20;33.30
30999;DHT22;20549;50.042;8.968;2023-05-13T10:02:05;33.60;33.60
30999;DHT22;20549;50.042;8.968;2023-05-13T10:04:31;33.00;33.90
30999;DHT22;20549;50.042;8.968;2023-05-13T10:06:57;32.40;34.30
30999;DHT22;20549;50.042;8.968;2023-05-13T10:09:25;31.90;34.10
30999;DHT22;20549;50.042;8.968;2023-05-13T10:11:50;31.40;35.20
30999;DHT22;20549;50.042;8.968;2023-05-13T10:14:17;31.00;35.50
30999;DHT22;20549;50.042;8.968;2023-05-13T10:16:44;30.70;36.00
30999;DHT22;20549;50.042;8.968;2023-05-13T10:19:10;30.50;36.10
30999;DHT22;20549;50.042;8.968;2023-05-13T10:21:37;30.20;36.20
30999;DHT22;20549;50.042;8.968;2023-05-13T10:24:03;30.00;36.20
30999;DHT22;20549;50.042;8.968;2023-05-13T10:26:30;29.80;36.20
30999;DHT22;20549;50.042;8.968;2023-05-13T10:28:56;29.50;36.40
30999;DHT22;20549;50.042;8.968;2023-05-13T10:31:23;29.30;37.00
30999;DHT22;20549;50.042;8.968;2023-05-13T10:33:50;29.20;37.60
30999;DHT22;20549;50.042;8.968;2023-05-13T10:41:58;28.80;38.50
30999;DHT22;20549;50.042;8.968;2023-05-13T10:44:18;28.70;38.70
30999;DHT22;20549;50.042;8.968;2023-05-13T10:46:42;28.60;38.90
30999;DHT22;20549;50.042;8.968;2023-05-13T10:49:12;28.40;39.00
30999;DHT22;20549;50.042;8.968;2023-05-13T10:51:35;28.20;39.40
30999;DHT22;20549;50.042;8.968;2023-05-13T10:54:02;27.90;39.60
30999;DHT22;20549;50.042;8.968;2023-05-13T10:56:29;27.60;39.50
30999;DHT22;20549;50.042;8.968;2023-05-13T10:59:04;27.40;39.80
30999;DHT22;20549;50.042;8.968;2023-05-13T11:01:34;27.20;40.20
30999;DHT22;20549;50.042;8.968;2023-05-13T11:04:00;27.10;40.30
30999;DHT22;20549;50.042;8.968;2023-05-13T11:06:36;27.00;40.30
30999;DHT22;20549;50.042;8.968;2023-05-13T11:09:10;27.00;40.40
30999;DHT22;20549;50.042;8.968;2023-05-13T11:11:34;27.00;40.60
30999;DHT22;20549;50.042;8.968;2023-05-13T11:14:16;27.00;40.40
30999;DHT22;20549;50.042;8.968;2023-05-13T11:19:30;27.10;40.00
30999;DHT22;20549;50.042;8.968;2023-05-13T11:22:17;27.20;40.50
30999;DHT22;20549;50.042;8.968;2023-05-13T11:24:43;27.30;40.10
30999;DHT22;20549;50.042;8.968;2023-05-13T11:27:14;27.30;39.60
30999;DHT22;20549;50.042;8.968;2023-05-13T11:29:49;27.40;39.30
30999;DHT22;20549;50.042;8.968;2023-05-13T11:32:46;27.30;39.00
30999;DHT22;20549;50.042;8.968;2023-05-13T11:34:49;27.30;39.00
30999;DHT22;20549;50.042;8.968;2023-05-13T11:37:09;27.30;39.00
30999;DHT22;20549;50.042;8.968;2023-05-13T11:39:37;27.30;39.20
30999;DHT22;20549;50.042;8.968;2023-05-13T11:42:04;27.30;39.10
30999;DHT22;20549;50.042;8.968;2023-05-13T11:44:28;27.30;38.80
30999;DHT22;20549;50.042;8.968;2023-05-13T11:46:58;27.30;38.60
30999;DHT22;20549;50.042;8.968;2023-05-13T11:49:40;27.40;38.80
30999;DHT22;20549;50.042;8.968;2023-05-13T11:52:11;27.40;39.10
30999;DHT22;20549;50.042;8.968;2023-05-13T11:57:25;27.30;38.80
30999;DHT22;20549;50.042;8.968;2023-05-13T12:00:00;27.30;39.00
30999;DHT22;20549;50.042;8.968;2023-05-13T12:02:30;27.10;39.20
30999;DHT22;20549;50.042;8.968;2023-05-13T12:04:59;27.00;39.50
30999;DHT22;20549;50.042;8.968;2023-05-13T12:07:22;26.80;39.50
30999;DHT22;20549;50.042;8.968;2023-05-13T12:09:49;26.70;39.80
30999;DHT22;20549;50.042;8.968;2023-05-13T12:12:15;26.50;39.90
30999;DHT22;20549;50.042;8.968;2023-05-13T12:14:42;26.40;39.90
30999;DHT22;20549;50.042;8.968;2023-05-13T12:17:08;26.30;39.90
30999;DHT22;20549;50.042;8.968;2023-05-13T12:19:35;26.10;39.90
30999;DHT22;20549;50.042;8.968;2023-05-13T12:22:01;25.90;39.90
30999;DHT22;20549;50.042;8.968;2023-05-13T12:24:31;25.70;40.30
30999;DHT22;20549;50.042;8.968;2023-05-13T12:27:03;25.50;41.50
30999;DHT22;20549;50.042;8.968;2023-05-13T12:29:22;25.20;42.70
30999;DHT22;20549;50.042;8.968;2023-05-13T12:32:02;24.80;43.20
30999;DHT22;20549;50.042;8.968;2023-05-13T12:34:31;24.30;43.70
30999;DHT22;20549;50.042;8.968;2023-05-13T12:37:07;23.80;44.20
30999;DHT22;20549;50.042;8.968;2023-05-13T12:39:23;23.20;44.60
30999;DHT22;20549;50.042;8.968;2023-05-13T12:41:50;22.70;45.40
30999;DHT22;20549;50.042;8.968;2023-05-13T12:44:19;22.30;46.00
30999;DHT22;20549;50.042;8.968;2023-05-13T12:46:52;21.90;46.50
30999;DHT22;20549;50.042;8.968;2023-05-13T12:49:18;21.50;47.30
30999;DHT22;20549;50.042;8.968;2023-05-13T12:51:45;21.20;48.10
30999;DHT22;20549;50.042;8.968;2023-05-13T12:54:11;20.80;50.20
30999;DHT22;20549;50.042;8.968;2023-05-13T12:56:39;20.40;52.20
30999;DHT22;20549;50.042;8.968;2023-05-13T12:59:06;20.00;54.00
30999;DHT22;20549;50.042;8.968;2023-05-13T13:01:33;19.50;54.70
30999;DHT22;20549;50.042;8.968;2023-05-13T13:03:59;19.10;55.50
30999;DHT22;20549;50.042;8.968;2023-05-13T13:06:26;18.60;57.20
30999;DHT22;20549;50.042;8.968;2023-05-13T13:08:52;18.30;58.50
30999;DHT22;20549;50.042;8.968;2023-05-13T13:11:19;18.10;59.90
30999;DHT22;20549;50.042;8.968;2023-05-13T13:13:46;17.90;61.90
30999;DHT22;20549;50.042;8.968;2023-05-13T13:16:12;17.80;63.90
30999;DHT22;20549;50.042;8.968;2023-05-13T13:18:39;17.80;65.50
30999;DHT22;20549;50.042;8.968;2023-05-13T13:21:05;17.80;67.00
30999;DHT22;20549;50.042;8.968;2023-05-13T13:23:35;17.90;68.00
30999;DHT22;20549;50.042;8.968;2023-05-13T13:26:01;18.00;68.40
30999;DHT22;20549;50.042;8.968;2023-05-13T13:28:28;18.10;69.50
30999;DHT22;20549;50.042;8.968;2023-05-13T13:30:54;18.20;70.60
30999;DHT22;20549;50.042;8.968;2023-05-13T13:33:21;18.40;71.60
30999;DHT22;20549;50.042;8.968;2023-05-13T13:35:48;18.50;72.00
30999;DHT22;20549;50.042;8.968;2023-05-13T13:38:14;18.70;72.00
30999;DHT22;20549;50.042;8.968;2023-05-13T13:40:41;18.90;72.10
30999;DHT22;20549;50.042;8.968;2023-05-13T13:43:07;19.10;72.10
30999;DHT22;20549;50.042;8.968;2023-05-13T13:45:34;19.20;72.10
30999;DHT22;20549;50.042;8.968;2023-05-13T13:48:01;19.30;72.00
30999;DHT22;20549;50.042;8.968;2023-05-13T13:50:27;19.50;72.50
30999;DHT22;20549;50.042;8.968;2023-05-13T13:52:54;19.50;72.00
30999;DHT22;20549;50.042;8.968;2023-05-13T13:55:21;19.70;72.10
30999;DHT22;20549;50.042;8.968;2023-05-13T13:57:47;19.70;72.80
30999;DHT22;20549;50.042;8.968;2023-05-13T14:00:14;19.80;73.50
30999;DHT22;20549;50.042;8.968;2023-05-13T14:02:41;19.90;73.90
30999;DHT22;20549;50.042;8.968;2023-05-13T14:05:07;20.10;73.50
30999;DHT22;20549;50.042;8.968;2023-05-13T14:07:34;20.20;73.80
30999;DHT22;20549;50.042;8.968;2023-05-13T14:10:00;20.20;74.40
30999;DHT22;20549;50.042;8.968;2023-05-13T14:12:27;20.30;74.30
30999;DHT22;20549;50.042;8.968;2023-05-13T14:14:53;20.40;73.90
30999;DHT22;20549;50.042;8.968;2023-05-13T14:17:20;20.60;74.10
30999;DHT22;20549;50.042;8.968;2023-05-13T14:19:46;20.60;73.90
30999;DHT22;20549;50.042;8.968;2023-05-13T14:22:13;20.70;73.70
30999;DHT22;20549;50.042;8.968;2023-05-13T14:24:39;20.80;74.20
30999;DHT22;20549;50.042;8.968;2023-05-13T14:27:06;20.90;73.90
30999;DHT22;20549;50.042;8.968;2023-05-13T14:29:33;21.00;73.90
30999;DHT22;20549;50.042;8.968;2023-05-13T14:31:59;21.00;73.70
30999;DHT22;20549;50.042;8.968;2023-05-13T14:34:26;21.10;73.50
30999;DHT22;20549;50.042;8.968;2023-05-13T14:36:52;21.20;73.50
30999;DHT22;20549;50.042;8.968;2023-05-13T14:39:19;21.30;73.20
30999;DHT22;20549;50.042;8.968;2023-05-13T14:41:46;21.30;72.80
30999;DHT22;20549;50.042;8.968;2023-05-13T14:44:12;21.40;72.30
30999;DHT22;20549;50.042;8.968;2023-05-13T14:46:39;21.50;72.00
30999;DHT22;20549;50.042;8.968;2023-05-13T14:49:08;21.50;70.90
30999;DHT22;20549;50.042;8.968;2023-05-13T14:51:32;21.50;69.60
30999;DHT22;20549;50.042;8.968;2023-05-13T14:53:59;21.60;69.00
30999;DHT22;20549;50.042;8.968;2023-05-13T14:56:25;21.60;68.50
30999;DHT22;20549;50.042;8.968;2023-05-13T14:58:52;21.70;67.70
30999;DHT22;20549;50.042;8.968;2023-05-13T15:01:18;21.70;66.70
30999;DHT22;20549;50.042;8.968;2023-05-13T15:03:45;21.80;66.00
30999;DHT22;20549;50.042;8.968;2023-05-13T15:06:11;21.90;65.10
30999;DHT22;20549;50.042;8.968;2023-05-13T15:08:38;21.90;64.60
30999;DHT22;20549;50.042;8.968;2023-05-13T15:11:05;22.00;64.00
30999;DHT22;20549;50.042;8.968;2023-05-13T15:13:31;22.00;63.10
30999;DHT22;20549;50.042;8.968;2023-05-13T15:15:58;22.00;62.60
30999;DHT22;20549;50.042;8.968;2023-05-13T15:18:24;22.00;61.40
30999;DHT22;20549;50.042;8.968;2023-05-13T15:20:51;22.10;60.60
30999;DHT22;20549;50.042;8.968;2023-05-13T15:23:18;22.10;59.60
30999;DHT22;20549;50.042;8.968;2023-05-13T15:25:44;22.10;59.50
30999;DHT22;20549;50.042;8.968;2023-05-13T15:28:11;22.00;59.30
30999;DHT22;20549;50.042;8.968;2023-05-13T15:30:37;22.00;59.00
30999;DHT22;20549;50.042;8.968;2023-05-13T15:33:04;22.00;58.60
30999;DHT22;20549;50.042;8.968;2023-05-13T15:35:31;22.00;58.40
30999;DHT22;20549;50.042;8.968;2023-05-13T15:37:57;22.00;58.00
30999;DHT22;20549;50.042;8.968;2023-05-13T15:40:24;22.00;57.50